B19 weather

Biddeford Municipal Airport
Biddeford, Maine, United States

Public forecast

Using degrees Fahrenheit for public forecast. Weather courtesy of forecast.io.

Closest aviation weather report (METAR) to Biddeford Municipal Airport

Closest report is Sanford Seacoast Regional Airport, 11.1 nm (20.6 km) WSW. Retrieved 2019/10/14 00:56 UTC (58 minutes ago):

KSFM 140056Z AUTO 00000KT 10SM CLR 09/08 A3005 RMK AO2 SLP178 T00890083

Closest aviation forecast (TAF) to Biddeford Municipal Airport

Closest forecast is Portland International Jetport, 13.0 nm (24.1 km) NNE. Retrieved 2019-10-14 00:22 UTC (2 hours ago):

TAF KPWM 132320Z 1400/1424 00000KT P6SM SCT200 FM140600 00000KT 6SM BR BKN040 FM140900 00000KT 1/2SM FG BKN008 FM141500 VRB03KT P6SM BKN015